createdAt,value
2018-01-07T00:02:16.997Z,99266.61
2018-01-07T00:04:44.476Z,99267.48
2018-01-07T00:07:11.951Z,99276.80
2018-01-07T00:09:39.741Z,99275.14
2018-01-07T00:12:07.199Z,99282.80
2018-01-07T00:14:34.792Z,99290.05
2018-01-07T00:17:02.256Z,99294.30
2018-01-07T00:19:29.721Z,99285.33
2018-01-07T00:21:57.186Z,99281.13
2018-01-07T00:24:24.692Z,99285.83
2018-01-07T00:26:52.262Z,99294.78
2018-01-07T00:29:19.812Z,99302.81
2018-01-07T00:31:48.401Z,99304.90
2018-01-07T00:34:16.638Z,99305.34
2018-01-07T00:36:44.269Z,99312.59
2018-01-07T00:39:11.929Z,99310.36
2018-01-07T00:41:39.488Z,99310.34
2018-01-07T00:44:08.040Z,99318.44
2018-01-07T00:46:35.521Z,99323.98
2018-01-07T00:49:02.982Z,99326.55
2018-01-07T00:51:30.438Z,99325.69
2018-01-07T00:53:57.900Z,99334.59
2018-01-07T00:56:25.447Z,99339.24
2018-01-07T00:58:54.037Z,99333.28
2018-01-07T01:01:21.535Z,99324.80
2018-01-07T01:03:48.990Z,99331.16
2018-01-07T01:06:16.468Z,99331.53
2018-01-07T01:08:43.969Z,99344.30
2018-01-07T01:11:11.439Z,99345.37
2018-01-07T01:13:38.966Z,99356.92
2018-01-07T01:16:06.426Z,99353.59
2018-01-07T01:18:33.888Z,99351.88
2018-01-07T01:21:01.351Z,99354.44
2018-01-07T01:23:28.826Z,99359.55
2018-01-07T01:25:56.300Z,99369.76
2018-01-07T01:28:23.768Z,99371.47
2018-01-07T01:30:51.236Z,99371.39
2018-01-07T01:33:18.683Z,99367.20
2018-01-07T01:35:46.159Z,99371.44
2018-01-07T01:38:13.608Z,99367.20
2018-01-07T01:40:41.156Z,99372.27
2018-01-07T01:43:08.635Z,99368.02
2018-01-07T01:45:36.095Z,99371.39
2018-01-07T01:48:03.585Z,99377.32
2018-01-07T01:50:31.039Z,99374.37
2018-01-07T01:52:58.507Z,99378.23
2018-01-07T01:55:25.983Z,99376.94
2018-01-07T01:57:53.502Z,99385.88
2018-01-07T02:00:20.995Z,99385.00
2018-01-07T02:02:48.440Z,99387.12
2018-01-07T02:05:16.767Z,99397.33
2018-01-07T02:07:44.239Z,99390.88
2018-01-07T02:10:11.704Z,99398.14
2018-01-07T02:12:39.169Z,99391.33
2018-01-07T02:15:06.641Z,99399.86
2018-01-07T02:17:34.100Z,99399.09
2018-01-07T02:20:01.572Z,99408.36
2018-01-07T02:22:29.924Z,99408.81
2018-01-07T02:24:57.389Z,99408.00
2018-01-07T02:27:24.878Z,99411.41
2018-01-07T02:29:53.748Z,99415.56
2018-01-07T02:32:21.199Z,99418.98
2018-01-07T02:34:48.697Z,99421.94
2018-01-07T02:37:16.167Z,99421.08
2018-01-07T02:39:43.651Z,99421.95
2018-01-07T02:42:11.140Z,99428.70
2018-01-07T02:44:38.601Z,99419.75
2018-01-07T02:47:06.068Z,99426.14
2018-01-07T02:49:33.592Z,99425.68
2018-01-07T02:52:01.119Z,99427.36
2018-01-07T02:54:28.573Z,99430.76
2018-01-07T02:56:56.036Z,99430.77
2018-01-07T02:59:23.484Z,99433.31
2018-01-07T03:01:50.986Z,99433.34
2018-01-07T03:04:18.479Z,99434.59
2018-01-07T03:06:45.945Z,99435.88
2018-01-07T03:09:13.429Z,99429.45
2018-01-07T03:11:40.884Z,99435.41
2018-01-07T03:14:08.331Z,99435.84
2018-01-07T03:16:35.821Z,99441.75
2018-01-07T03:19:03.289Z,99447.70
2018-01-07T03:21:30.739Z,99443.00
2018-01-07T03:23:58.254Z,99451.01
2018-01-07T03:26:25.703Z,99446.74
2018-01-07T03:28:53.171Z,99452.64
2018-01-07T03:31:20.635Z,99453.50
2018-01-07T03:33:48.099Z,99461.99
2018-01-07T03:36:15.576Z,99470.92
2018-01-07T03:38:43.723Z,99469.22
2018-01-07T03:41:11.196Z,99467.92
2018-01-07T03:43:38.672Z,99470.95
2018-01-07T03:46:06.184Z,99467.09
2018-01-07T03:48:33.680Z,99467.11
2018-01-07T03:51:01.148Z,99465.02
2018-01-07T03:53:28.621Z,99466.33
2018-01-07T03:55:56.073Z,99467.17
2018-01-07T03:58:24.480Z,99477.27
2018-01-07T04:00:51.940Z,99478.16
2018-01-07T04:03:19.398Z,99478.13
2018-01-07T04:05:46.901Z,99483.68
2018-01-07T04:08:14.349Z,99495.20
2018-01-07T04:10:41.801Z,99500.77
2018-01-07T04:13:09.259Z,99502.47
2018-01-07T04:15:36.711Z,99510.97
2018-01-07T04:18:04.171Z,99502.84
2018-01-07T04:20:31.635Z,99509.19
2018-01-07T04:22:59.100Z,99499.83
2018-01-07T04:25:26.580Z,99502.72
2018-01-07T04:27:54.039Z,99502.22
2018-01-07T04:30:21.573Z,99505.63
2018-01-07T04:32:49.057Z,99502.25
2018-01-07T04:35:16.515Z,99510.33
2018-01-07T04:37:44.004Z,99506.03
2018-01-07T04:40:11.479Z,99517.51
2018-01-07T04:42:38.928Z,99511.98
2018-01-07T04:45:06.395Z,99514.53
2018-01-07T04:47:33.856Z,99516.26
2018-01-07T04:50:01.311Z,99520.91
2018-01-07T04:52:28.806Z,99521.31
2018-01-07T04:54:56.248Z,99521.76
2018-01-07T04:57:23.701Z,99520.50
2018-01-07T04:59:51.187Z,99520.05
2018-01-07T05:02:19.260Z,99517.08
2018-01-07T05:04:46.913Z,99521.75
2018-01-07T05:07:14.379Z,99522.89
2018-01-07T05:09:41.846Z,99534.34
2018-01-07T05:12:09.340Z,99536.44
2018-01-07T05:14:36.812Z,99533.91
2018-01-07T05:17:04.260Z,99539.87
2018-01-07T05:19:31.716Z,99539.08
2018-01-07T05:21:59.202Z,99545.97
2018-01-07T05:24:26.664Z,99551.80
2018-01-07T05:26:54.104Z,99563.70
2018-01-07T05:29:21.572Z,99578.06
2018-01-07T05:31:49.023Z,99580.67
2018-01-07T05:34:16.474Z,99582.42
2018-01-07T05:36:43.950Z,99588.81
2018-01-07T05:39:11.404Z,99586.28
2018-01-07T05:41:38.868Z,99588.42
2018-01-07T05:44:06.336Z,99589.27
2018-01-07T05:46:33.860Z,99587.40
2018-01-07T05:49:01.335Z,99594.69
2018-01-07T05:51:28.837Z,99596.44
2018-01-07T05:53:56.300Z,99605.36
2018-01-07T05:56:23.864Z,99613.41
2018-01-07T05:58:51.322Z,99620.56
2018-01-07T06:01:18.808Z,99624.43
2018-01-07T06:03:46.258Z,99630.34
2018-01-07T06:06:13.720Z,99638.02
2018-01-07T06:08:41.195Z,99637.15
2018-01-07T06:11:08.670Z,99642.25
2018-01-07T06:13:36.127Z,99643.55
2018-01-07T06:16:03.573Z,99645.20
2018-01-07T06:18:31.035Z,99649.93
2018-01-07T06:20:58.492Z,99655.03
2018-01-07T06:23:25.935Z,99655.05
2018-01-07T06:25:53.399Z,99660.55
2018-01-07T06:28:20.851Z,99662.25
2018-01-07T06:30:48.327Z,99660.55
2018-01-07T06:33:15.785Z,99665.23
2018-01-07T06:35:43.243Z,99675.82
2018-01-07T06:38:10.712Z,99678.31
2018-01-07T06:40:38.157Z,99685.98
2018-01-07T06:43:05.611Z,99689.42
2018-01-07T06:45:33.085Z,99692.80
2018-01-07T06:48:00.531Z,99689.86
2018-01-07T06:50:27.983Z,99700.11
2018-01-07T06:52:55.466Z,99711.58
2018-01-07T06:55:22.927Z,99715.41
2018-01-07T06:57:50.644Z,99723.09
2018-01-07T07:00:18.113Z,99735.44
2018-01-07T07:02:45.578Z,99738.41
2018-01-07T07:05:13.068Z,99738.00
2018-01-07T07:07:40.518Z,99744.80
2018-01-07T07:10:08.000Z,99749.02
2018-01-07T07:12:35.478Z,99754.54
2018-01-07T07:15:02.967Z,99753.68
2018-01-07T07:17:30.423Z,99751.97
2018-01-07T07:19:57.879Z,99761.72
2018-01-07T07:22:25.334Z,99771.03
2018-01-07T07:24:52.865Z,99781.61
2018-01-07T07:27:20.365Z,99787.62
2018-01-07T07:29:47.819Z,99798.69
2018-01-07T07:32:15.276Z,99807.66
2018-01-07T07:34:42.751Z,99810.18
2018-01-07T07:37:10.203Z,99813.56
2018-01-07T07:39:37.655Z,99820.80
2018-01-07T07:42:05.171Z,99822.04
2018-01-07T07:44:32.627Z,99821.18
2018-01-07T07:47:00.131Z,99824.98
2018-01-07T07:49:27.600Z,99834.26
2018-01-07T07:51:55.068Z,99837.28
2018-01-07T07:54:22.549Z,99838.56
2018-01-07T07:56:50.013Z,99853.02
2018-01-07T07:59:17.491Z,99855.59
2018-01-07T08:01:44.961Z,99859.77
2018-01-07T08:04:12.423Z,99861.91
2018-01-07T08:06:39.914Z,99860.18
2018-01-07T08:09:07.375Z,99863.58
2018-01-07T08:11:34.835Z,99863.57
2018-01-07T08:14:02.294Z,99869.52
2018-01-07T08:16:29.741Z,99869.08
2018-01-07T08:34:50.587Z,99891.14
2018-01-07T08:37:19.257Z,99890.25
2018-01-07T08:39:46.708Z,99891.92
2018-01-07T08:42:14.165Z,99895.73
2018-01-07T08:44:41.630Z,99897.84
2018-01-07T08:47:09.092Z,99901.66
2018-01-07T08:49:36.552Z,99899.09
2018-01-07T08:52:04.022Z,99893.97
2018-01-07T08:54:31.470Z,99897.41
2018-01-07T08:56:58.932Z,99895.22
2018-01-07T08:59:26.401Z,99903.73
2018-01-07T09:01:53.862Z,99914.34
2018-01-07T09:04:21.332Z,99919.45
2018-01-07T09:06:48.796Z,99922.44
2018-01-07T09:09:16.257Z,99926.63
2018-01-07T09:11:44.141Z,99935.16
2018-01-07T09:14:11.595Z,99936.41
2018-01-07T09:16:39.097Z,99932.20
2018-01-07T09:19:06.581Z,99936.05
2018-01-07T09:21:34.032Z,99942.48
2018-01-07T09:24:01.700Z,99943.33
2018-01-07T09:26:29.164Z,99944.18
2018-01-07T09:28:56.670Z,99938.65
2018-01-07T09:31:24.155Z,99944.97
2018-01-07T09:33:51.731Z,99944.10
2018-01-07T09:36:19.203Z,99944.06
2018-01-07T09:38:46.744Z,99947.91
2018-01-07T09:41:14.259Z,99943.25
2018-01-07T09:43:41.745Z,99947.01
2018-01-07T09:46:09.228Z,99946.07
2018-01-07T09:48:36.687Z,99950.72
2018-01-07T09:51:04.148Z,99948.48
2018-01-07T09:53:31.610Z,99947.15
2018-01-07T09:55:59.072Z,99935.67
2018-01-07T09:58:26.563Z,99934.81
2018-01-07T10:00:54.042Z,99920.36
2018-01-07T10:03:21.505Z,99929.30
2018-01-07T10:05:49.053Z,99927.51
2018-01-07T10:08:16.506Z,99927.88
2018-01-07T10:10:43.968Z,99929.11
2018-01-07T10:13:11.419Z,99935.82
2018-01-07T10:15:38.878Z,99927.29
2018-01-07T10:18:06.346Z,99930.25
2018-01-07T10:20:33.815Z,99933.52
2018-01-07T10:23:01.276Z,99935.31
2018-01-07T10:25:28.758Z,99936.14
2018-01-07T10:27:56.247Z,99939.00
2018-01-07T10:30:23.815Z,99940.73
2018-01-07T10:32:51.264Z,99944.97
2018-01-07T10:35:18.742Z,99951.46
2018-01-07T10:37:46.209Z,99944.97
2018-01-07T10:40:13.701Z,99944.88
2018-01-07T10:42:41.176Z,99951.25
2018-01-07T10:45:08.692Z,99954.11
2018-01-07T10:47:36.155Z,99964.81
2018-01-07T10:50:03.658Z,99965.21
2018-01-07T10:52:31.176Z,99967.80
2018-01-07T10:54:58.641Z,99968.66
2018-01-07T10:57:26.100Z,99976.38
2018-01-07T10:59:53.571Z,99990.06
2018-01-07T11:02:26.471Z,99992.66
2018-01-07T11:04:53.948Z,99997.78
2018-01-07T11:07:21.427Z,99999.91
2018-01-07T11:09:48.891Z,99997.78
2018-01-07T11:12:16.352Z,99996.09
2018-01-07T11:14:43.811Z,99994.36
2018-01-07T11:17:11.323Z,100002.44
2018-01-07T11:19:38.913Z,100007.98
2018-01-07T11:22:07.881Z,100014.02
2018-01-07T11:24:37.115Z,100007.22
2018-01-07T11:27:04.590Z,100008.88
2018-01-07T11:29:32.053Z,100013.28
2018-01-07T11:31:59.547Z,100023.97
2018-01-07T11:34:27.007Z,100028.27
2018-01-07T11:36:54.559Z,100031.66
2018-01-07T11:39:22.105Z,100034.19
2018-01-07T11:41:49.540Z,100030.83
2018-01-07T11:44:17.644Z,100025.71
2018-01-07T11:46:45.122Z,100029.95
2018-01-07T11:49:12.603Z,100035.02
2018-01-07T11:51:40.061Z,100038.50
2018-01-07T11:54:08.181Z,100037.70
2018-01-07T11:56:35.809Z,100034.30
2018-01-07T11:59:03.307Z,100036.05
2018-01-07T12:01:30.792Z,100042.07
2018-01-07T12:03:58.270Z,100039.91
2018-01-07T12:06:25.733Z,100040.36
2018-01-07T12:08:53.204Z,100047.52
2018-01-07T12:11:20.760Z,100043.30
2018-01-07T12:13:48.250Z,100040.36
2018-01-07T12:16:16.431Z,100039.98
2018-01-07T12:18:44.220Z,100040.03
2018-01-07T12:21:12.068Z,100030.23
2018-01-07T12:23:40.105Z,100035.73
2018-01-07T12:26:07.556Z,100028.39
2018-01-07T12:28:35.072Z,100028.84
2018-01-07T12:31:02.564Z,100022.92
2018-01-07T12:33:30.025Z,100023.33
2018-01-07T12:35:57.507Z,100011.02
2018-01-07T12:38:24.987Z,100009.74
2018-01-07T12:40:52.487Z,100002.06
2018-01-07T12:43:19.998Z,100003.73
2018-01-07T12:45:47.648Z,99999.84
2018-01-07T12:48:15.117Z,99999.48
2018-01-07T12:50:42.611Z,100000.00
2018-01-07T12:53:10.226Z,100000.80
2018-01-07T12:55:37.696Z,99999.58
2018-01-07T12:58:05.274Z,99995.77
2018-01-07T13:00:32.763Z,99991.48
2018-01-07T13:03:00.268Z,99992.80
2018-01-07T13:05:27.841Z,99997.52
2018-01-07T13:07:55.333Z,99997.56
2018-01-07T13:10:22.851Z,99999.25
2018-01-07T13:12:52.558Z,100009.06
2018-01-07T13:15:21.025Z,100024.02
2018-01-07T13:17:48.541Z,100039.78
2018-01-07T13:20:16.035Z,100047.86
2018-01-07T13:22:43.510Z,100047.88
2018-01-07T13:25:10.992Z,100049.97
2018-01-07T13:27:38.552Z,100046.59
2018-01-07T13:30:06.085Z,100043.19
2018-01-07T13:32:33.754Z,100049.16
2018-01-07T13:35:01.368Z,100053.02
2018-01-07T13:37:28.890Z,100055.56
2018-01-07T13:39:56.438Z,100057.30
2018-01-07T13:42:23.933Z,100062.84
2018-01-07T13:44:51.476Z,100065.86
2018-01-07T13:47:19.004Z,100067.13
2018-01-07T13:49:46.522Z,100068.86
2018-01-07T13:52:14.045Z,100076.11
2018-01-07T13:54:41.538Z,100086.34
2018-01-07T13:57:09.027Z,100088.88
2018-01-07T13:59:36.505Z,100073.50
2018-01-07T14:02:03.987Z,100074.73
2018-01-07T14:04:31.505Z,100087.11
2018-01-07T14:06:58.963Z,100091.45
2018-01-07T14:09:26.492Z,100092.32
2018-01-07T14:11:53.951Z,100093.21
2018-01-07T14:14:21.441Z,100097.47
2018-01-07T14:16:48.932Z,100096.62
2018-01-07T14:19:16.388Z,100097.06
2018-01-07T14:21:43.841Z,100101.34
2018-01-07T14:24:11.389Z,100105.61
2018-01-07T14:26:38.860Z,100107.31
2018-01-07T14:29:06.340Z,100109.46
2018-01-07T14:31:33.871Z,100109.45
2018-01-07T14:34:01.329Z,100099.59
2018-01-07T14:36:29.053Z,100101.30
2018-01-07T14:38:56.516Z,100091.95
2018-01-07T14:41:23.988Z,100097.91
2018-01-07T14:43:51.440Z,100097.94
2018-01-07T14:46:18.916Z,100108.61
2018-01-07T14:48:46.499Z,100117.16
2018-01-07T14:51:13.995Z,100130.80
2018-01-07T14:53:41.468Z,100137.20
2018-01-07T14:56:08.935Z,100135.06
2018-01-07T14:58:36.418Z,100140.62
2018-01-07T15:01:03.881Z,100139.33
2018-01-07T15:03:31.367Z,100142.31
2018-01-07T15:05:58.847Z,100148.69
2018-01-07T15:08:27.391Z,100144.45
2018-01-07T15:10:54.854Z,100149.98
2018-01-07T15:13:22.327Z,100152.98
2018-01-07T15:15:49.800Z,100155.94
2018-01-07T15:18:17.276Z,100163.20
2018-01-07T15:20:44.762Z,100169.58
2018-01-07T15:23:12.219Z,100179.37
2018-01-07T15:25:39.738Z,100178.11
2018-01-07T15:28:07.245Z,100178.94
2018-01-07T15:30:34.700Z,100179.38
2018-01-07T15:33:02.205Z,100181.93
2018-01-07T15:35:29.720Z,100179.38
2018-01-07T15:37:57.182Z,100190.02
2018-01-07T15:40:24.629Z,100193.42
2018-01-07T15:42:52.196Z,100187.91
2018-01-07T15:45:19.667Z,100199.83
2018-01-07T15:47:47.249Z,100203.67
2018-01-07T15:50:14.912Z,100211.31
2018-01-07T15:52:42.369Z,100213.02
2018-01-07T15:55:09.857Z,100219.83
2018-01-07T15:57:37.348Z,100227.91
2018-01-07T16:00:04.858Z,100231.33
2018-01-07T16:02:32.444Z,100217.69
2018-01-07T16:04:59.934Z,100211.73
2018-01-07T16:07:27.408Z,100212.16
2018-01-07T16:09:54.896Z,100208.77
2018-01-07T16:12:22.386Z,100229.22
2018-01-07T16:14:49.877Z,100230.48
2018-01-07T16:17:17.340Z,100241.55
2018-01-07T16:19:44.825Z,100247.06
2018-01-07T16:22:12.344Z,100253.89
2018-01-07T16:24:39.835Z,100248.79
2018-01-07T16:29:41.038Z,100260.27
2018-01-07T16:32:08.489Z,100263.25
2018-01-07T16:34:35.976Z,100256.84
2018-01-07T16:37:03.448Z,100260.26
2018-01-07T16:52:29.348Z,100280.68
2018-01-07T16:54:56.810Z,100279.81
2018-01-07T16:57:24.280Z,100285.77
2018-01-07T16:59:51.799Z,100282.38
2018-01-07T17:02:19.266Z,100276.00
2018-01-07T17:04:46.734Z,100272.99
2018-01-07T17:07:14.324Z,100266.64
2018-01-07T17:09:41.783Z,100276.86
2018-01-07T17:12:09.232Z,100280.26
2018-01-07T17:14:36.713Z,100281.94
2018-01-07T17:17:04.271Z,100273.01
2018-01-07T17:19:31.794Z,100275.97
2018-01-07T17:21:59.290Z,100276.41
2018-01-07T17:24:27.037Z,100271.73
2018-01-07T17:26:54.561Z,100274.26
2018-01-07T17:29:22.068Z,100277.67
2018-01-07T17:31:49.597Z,100280.20
2018-01-07T17:34:17.222Z,100278.94
2018-01-07T17:36:44.736Z,100272.13
2018-01-07T17:39:12.261Z,100280.60
2018-01-07T17:41:39.720Z,100285.31
2018-01-07T17:44:07.195Z,100293.39
2018-01-07T17:46:34.794Z,100303.18
2018-01-07T17:49:02.244Z,100293.83
2018-01-07T17:51:29.744Z,100295.53
2018-01-07T17:53:57.213Z,100292.09
2018-01-07T17:56:24.675Z,100301.89
2018-01-07T17:58:52.156Z,100301.50
2018-01-07T18:01:19.632Z,100314.64
2018-01-07T18:03:47.196Z,100310.84
2018-01-07T18:06:14.687Z,100324.42
2018-01-07T18:08:42.212Z,100329.95
2018-01-07T18:11:09.714Z,100332.51
2018-01-07T18:13:37.168Z,100330.38
2018-01-07T18:16:04.741Z,100319.77
2018-01-07T18:18:32.375Z,100316.73
2018-01-07T18:20:59.846Z,100316.29
2018-01-07T18:23:27.380Z,100331.17
2018-01-07T18:25:54.863Z,100320.55
2018-01-07T18:28:22.330Z,100320.52
2018-01-07T18:30:49.812Z,100322.21
2018-01-07T18:33:19.452Z,100331.14
2018-01-07T18:35:47.015Z,100331.95
2018-01-07T18:38:14.563Z,100335.78
2018-01-07T18:40:42.624Z,100340.86
2018-01-07T18:43:10.100Z,100342.56
2018-01-07T18:45:37.855Z,100341.31
2018-01-07T18:48:05.381Z,100340.91
2018-01-07T18:50:33.093Z,100336.19
2018-01-07T18:53:00.573Z,100334.44
2018-01-07T18:55:28.112Z,100332.73
2018-01-07T18:58:00.766Z,100329.32
2018-01-07T19:00:28.912Z,100334.72
2018-01-07T19:02:56.408Z,100335.97
2018-01-07T19:05:23.928Z,100337.64
2018-01-07T19:07:51.437Z,100335.02
2018-01-07T19:10:18.916Z,100337.20
2018-01-07T19:12:47.223Z,100340.56
2018-01-07T19:15:14.760Z,100349.04
2018-01-07T19:17:42.257Z,100354.06
2018-01-07T19:20:09.830Z,100348.53
2018-01-07T19:22:37.339Z,100349.03
2018-01-07T19:25:04.832Z,100349.82
2018-01-07T19:27:32.381Z,100351.97
2018-01-07T19:29:59.851Z,100350.19
2018-01-07T19:32:27.471Z,100356.16
2018-01-07T19:34:55.043Z,100346.28
2018-01-07T19:37:22.684Z,100343.33
2018-01-07T19:39:50.422Z,100341.63
2018-01-07T19:42:18.242Z,100345.07
2018-01-07T19:44:46.031Z,100348.84
2018-01-07T19:47:13.884Z,100343.73
2018-01-07T19:49:41.684Z,100335.16
2018-01-07T19:52:09.608Z,100330.08
2018-01-07T19:54:38.378Z,100325.83
2018-01-07T19:57:06.207Z,100333.41
2018-01-07T19:59:34.003Z,100340.62
2018-01-07T20:02:01.823Z,100343.24
2018-01-07T20:04:29.718Z,100344.83
2018-01-07T20:06:57.685Z,100349.54
2018-01-07T20:09:25.470Z,100364.01
2018-01-07T20:11:53.436Z,100372.08
2018-01-07T20:14:21.198Z,100365.23
2018-01-07T20:16:48.997Z,100372.84
2018-01-07T20:19:16.863Z,100387.25
2018-01-07T20:21:44.630Z,100388.47
2018-01-07T20:24:12.739Z,100377.86
2018-01-07T20:26:40.672Z,100370.72
2018-01-07T20:29:08.549Z,100370.69
2018-01-07T20:31:36.395Z,100371.99
2018-01-07T20:34:04.436Z,100372.37
2018-01-07T20:36:32.494Z,100371.11
2018-01-07T20:39:00.368Z,100381.27
2018-01-07T20:41:27.993Z,100376.11
2018-01-07T20:43:55.481Z,100374.00
2018-01-07T20:46:23.014Z,100376.11
2018-01-07T20:48:50.560Z,100380.83
2018-01-07T20:51:18.091Z,100373.56
2018-01-07T20:53:45.711Z,100382.89
2018-01-07T20:56:13.278Z,100391.00
2018-01-07T20:58:41.060Z,100398.98
2018-01-07T21:01:08.735Z,100393.85
2018-01-07T21:03:36.447Z,100399.33
2018-01-07T21:06:04.011Z,100401.89
2018-01-07T21:08:32.584Z,100402.24
2018-01-07T21:11:00.122Z,100400.55
2018-01-07T21:13:27.633Z,100392.94
2018-01-07T21:15:55.137Z,100401.85
2018-01-07T21:18:22.697Z,100409.39
2018-01-07T21:20:50.212Z,100407.31
2018-01-07T21:23:17.696Z,100413.23
2018-01-07T21:25:45.408Z,100407.67
2018-01-07T21:28:12.879Z,100407.32
2018-01-07T21:30:40.401Z,100406.09
2018-01-07T21:33:07.889Z,100403.11
2018-01-07T21:35:35.355Z,100395.54
2018-01-07T21:38:02.825Z,100395.52
2018-01-07T21:40:36.984Z,100396.00
2018-01-07T21:43:04.496Z,100394.70
2018-01-07T21:45:31.953Z,100394.73
2018-01-07T21:47:59.533Z,100401.51
2018-01-07T21:50:27.098Z,100399.70
2018-01-07T21:52:54.542Z,100400.13
2018-01-07T21:55:22.012Z,100397.53
2018-01-07T21:57:49.700Z,100399.66
2018-01-07T22:00:39.739Z,100401.33
2018-01-07T22:03:19.249Z,100404.70
2018-01-07T22:05:54.622Z,100402.56
2018-01-07T22:08:22.161Z,100396.22
2018-01-07T22:10:49.620Z,100399.66
2018-01-07T22:13:17.100Z,100410.13
2018-01-07T22:15:44.700Z,100411.41
2018-01-07T22:18:12.153Z,100420.85
2018-01-07T22:20:39.634Z,100414.84
2018-01-07T22:23:07.450Z,100416.08
2018-01-07T22:25:34.969Z,100419.45
2018-01-07T22:28:02.445Z,100416.09
2018-01-07T22:30:29.978Z,100410.20
2018-01-07T22:32:58.488Z,100400.48
2018-01-07T22:35:26.590Z,100397.91
2018-01-07T22:37:54.127Z,100395.32
2018-01-07T22:40:22.770Z,100399.55
2018-01-07T22:42:50.398Z,100407.54
2018-01-07T22:45:18.370Z,100400.41
2018-01-07T22:47:51.365Z,100402.98
2018-01-07T22:50:19.104Z,100409.38
2018-01-07T22:52:46.605Z,100405.98
2018-01-07T22:55:14.084Z,100406.42
2018-01-07T22:57:41.559Z,100405.95
2018-01-07T23:00:10.218Z,100408.55
2018-01-07T23:02:41.223Z,100404.30
2018-01-07T23:05:09.466Z,100404.30
2018-01-07T23:07:37.028Z,100402.16
2018-01-07T23:10:06.246Z,100406.34
2018-01-07T23:12:33.930Z,100395.38
2018-01-07T23:15:04.849Z,100400.48
2018-01-07T23:17:32.864Z,100400.95
2018-01-07T23:20:01.333Z,100401.38
2018-01-07T23:22:31.189Z,100393.31
2018-01-07T23:24:58.676Z,100388.58
2018-01-07T23:27:26.177Z,100392.06
2018-01-07T23:29:53.675Z,100389.44
2018-01-07T23:32:21.134Z,100379.67
2018-01-07T23:34:48.592Z,100388.52
2018-01-07T23:37:16.095Z,100386.86
2018-01-07T23:39:43.575Z,100391.20
2018-01-07T23:42:11.031Z,100401.40
2018-01-07T23:44:38.519Z,100393.35
2018-01-07T23:47:06.073Z,100391.61
2018-01-07T23:49:33.572Z,100398.41
2018-01-07T23:52:01.043Z,100394.98
2018-01-07T23:54:28.782Z,100391.66
2018-01-07T23:56:56.370Z,100401.74
2018-01-07T23:59:23.851Z,100398.30
